EDT,Max TemperatureF,Mean TemperatureF,Min TemperatureF,Max Dew PointF,MeanDew PointF,Min DewpointF,Max Humidity, Mean Humidity, Min Humidity, Max Sea Level PressureIn, Mean Sea Level PressureIn, Min Sea Level PressureIn, Max VisibilityMiles, Mean VisibilityMiles, Min VisibilityMiles, Max Wind SpeedMPH, Mean Wind SpeedMPH, Max Gust SpeedMPH,PrecipitationIn, CloudCover, Events, WindDirDegrees
2013-7-1,69,64,60,66,63,55,100,97,82,30.15,30.06,29.99,10,4,0,12,6,20,0.12,7,Fog-Rain,157
2013-7-2,64,63,62,64,63,63,100,100,94,30.31,30.23,30.14,10,2,0,16,7,26,0.57,8,Fog-Rain,171
2013-7-3,66,64,62,66,64,63,100,100,100,30.41,30.37,30.30,10,3,0,14,7,24,1.71,8,Fog-Rain,182
2013-7-4,71,68,64,68,66,64,100,96,83,30.44,30.40,30.37,10,5,0,13,8,18,0.38,7,Fog-Rain-Thunderstorm,172
2013-7-5,73,68,64,70,66,63,100,97,88,30.43,30.40,30.36,10,6,0,15,8,21,0.04,7,Fog-Rain,185
2013-7-6,73,68,62,70,65,63,100,89,78,30.41,30.37,30.32,10,10,10,17,9,21,0.00,3,,202
2013-7-7,73,66,60,70,64,61,100,94,78,30.35,30.30,30.24,10,9,0,20,9,24,0.11,5,Fog-Rain-Thunderstorm,238
2013-7-8,73,66,60,64,62,57,100,87,65,30.35,30.31,30.27,10,6,0,15,11,18,0.00,6,Fog,274
2013-7-9,75,70,64,70,64,59,94,82,69,30.34,30.31,30.27,10,9,5,13,8,,0.00,3,,245
2013-7-10,75,70,64,68,65,63,100,91,73,30.28,30.20,30.13,10,8,0,20,8,28,0.26,5,Fog-Rain-Thunderstorm,258
2013-7-11,71,66,62,66,64,63,100,96,78,30.14,30.11,30.08,10,6,0,13,5,,0.68,7,Fog-Rain-Thunderstorm,295
2013-7-12,64,60,57,63,59,57,100,97,88,30.22,30.14,30.07,10,5,0,12,8,18,0.00,8,Fog-Rain-Thunderstorm,73
2013-7-13,69,64,59,66,62,59,100,99,83,30.39,30.30,30.21,10,3,0,12,6,20,0.14,8,Rain,91
2013-7-14,73,68,62,66,64,63,100,92,69,30.52,30.47,30.39,10,6,0,13,9,24,0.00,7,Fog-Rain,114
2013-7-15,78,71,64,70,65,61,100,84,65,30.55,30.52,30.48,10,9,0,8,4,,0.00,3,Fog-Rain,182
2013-7-16,80,73,66,70,65,63,100,82,61,30.53,30.50,30.47,10,10,0,10,7,,0.00,2,Fog-Thunderstorm,313
2013-7-17,75,70,66,72,67,63,100,86,78,30.49,30.45,30.39,10,10,7,9,6,23,0.00,1,Thunderstorm,339
2013-7-18,80,73,66,72,68,64,100,85,65,30.42,30.36,30.31,10,9,5,8,4,,0.00,1,,336
2013-7-19,80,74,68,72,69,66,100,89,65,30.32,30.25,30.17,10,8,2,15,7,16,0.00,1,Rain-Thunderstorm,256
2013-7-20,78,71,64,70,67,63,100,89,61,30.18,30.15,30.10,10,7,0,16,12,22,0.11,4,Fog-Rain-Thunderstorm,260
2013-7-21,73,68,64,70,65,61,100,90,69,30.20,30.15,30.13,10,10,2,13,7,17,0.44,2,Rain-Thunderstorm,257
2013-7-22,75,70,64,70,66,64,100,95,73,30.16,30.08,30.00,10,6,0,13,7,20,0.14,6,Fog-Rain-Thunderstorm,235
2013-7-23,75,68,62,66,63,61,100,88,65,29.99,29.96,29.92,10,7,0,22,14,31,0.02,5,Fog-Rain,278
2013-7-24,75,68,60,64,62,55,100,87,61,30.09,30.00,29.93,10,8,0,14,9,18,0.00,5,Fog-Rain,292
2013-7-25,69,62,55,59,56,52,100,82,64,30.22,30.13,30.06,10,10,10,8,5,,0.00,6,,78
2013-7-26,73,64,55,63,57,52,100,84,57,30.26,30.22,30.20,10,10,5,10,3,,0.00,3,,167
2013-7-27,62,61,60,63,61,57,100,99,88,30.22,30.15,30.09,10,3,0,15,8,25,0.38,8,Fog-Rain,182
2013-7-28,71,64,57,61,59,55,100,87,64,30.18,30.11,30.05,10,8,0,15,9,20,0.03,5,Fog-Rain,263
2013-7-29,68,60,51,55,51,48,100,76,56,30.36,30.26,30.18,10,10,10,14,9,16,0.00,1,,291
2013-7-30,69,62,55,57,53,46,88,73,56,30.39,30.35,30.33,10,10,10,9,5,,0.00,1,,263
2013-7-31,64,60,57,61,58,54,100,92,77,30.33,30.26,30.15,10,6,0,12,6,18,0.35,7,Fog-Rain,212